Погода Противьена неделю

Тверская область, Россия

22 - 28 мая
  • 22мая
    Сегодня
    +7°
    +18°
    Облачно с прояснениями
    ВремяПогодаТемператураВлажностьДавлениеВетер, м/сВероятность осадков
    00:00Небольшая облачность+10°C56 %758 мм3.7 м/с2 %
    03:00Ясно и безоблачно+7°C64 %759 мм2.8 м/с2 %
    06:00Ясно и безоблачно+9°C69 %760 мм2.3 м/с2 %
    09:00Ясно и безоблачно+13°C55 %761 мм2.6 м/с2 %
    12:00Ясно и безоблачно+16°C41 %761 мм2.8 м/с2 %
    15:00Облачно с прояснениями+18°C38 %761 мм2.6 м/с2 %
    18:00Облачно с прояснениями+18°C37 %760 мм2.2 м/с2 %
    21:00Ясно и безоблачно+13°C60 %761 мм2.5 м/с2 %
  • 23мая
    Четверг
    +8°
    +19°
    Облачно с прояснениями
    ВремяПогодаТемператураВлажностьДавлениеВетер, м/сВероятность осадков
    00:00Небольшая облачность+10°C64 %762 мм0.4 м/с2 %
    03:00Практически безоблачно+8°C82 %762 мм1.8 м/с2 %
    06:00Ясно и безоблачно+10°C72 %763 мм2.2 м/с2 %
    09:00Ясно и безоблачно+15°C49 %764 мм1.7 м/с2 %
    12:00Облачно с прояснениями+18°C39 %764 мм0.5 м/с2 %
    15:00Облачно с прояснениями+18°C41 %764 мм2.4 м/с2 %
    18:00Небольшая облачность+18°C47 %763 мм2.6 м/с2 %
    21:00Небольшая облачность+13°C64 %764 мм2.2 м/с2 %
  • 24мая
    Пятница
    +10°
    +23°
    Ясно и безоблачно
    ВремяПогодаТемператураВлажностьДавлениеВетер, м/сВероятность осадков
    00:00Ясно и безоблачно+10°C80 %764 мм2.1 м/с2 %
    03:00Ясно и безоблачно+8°C83 %765 мм1.8 м/с2 %
    06:00Небольшая облачность+11°C76 %765 мм1.5 м/с2 %
    09:00Ясно и безоблачно+18°C53 %765 мм1.0 м/с2 %
    12:00Ясно и безоблачно+21°C38 %765 мм0.7 м/с2 %
    15:00Ясно и безоблачно+22°C34 %764 мм1.7 м/с2 %
    18:00Ясно и безоблачно+21°C43 %763 мм3.2 м/с2 %
    21:00Ясно и безоблачно+16°C66 %763 мм2.0 м/с2 %
  • 25мая
    Суббота
    +11°
    +24°
    Ясно и безоблачно
    ВремяПогодаТемператураВлажностьДавлениеВетер, м/сВероятность осадков
    00:00Ясно и безоблачно+12°C61 %763 мм3.8 м/с2 %
    03:00Небольшая облачность+10°C64 %763 мм3.9 м/с2 %
    06:00Ясно и безоблачно+13°C64 %763 мм3.2 м/с2 %
    09:00Ясно и безоблачно+18°C47 %762 мм3.9 м/с2 %
    12:00Ясно и безоблачно+22°C36 %761 мм4.4 м/с2 %
    15:00Ясно и безоблачно+23°C34 %760 мм4.9 м/с2 %
    18:00Ясно и безоблачно+23°C37 %759 мм4.3 м/с3 %
    21:00Ясно и безоблачно+18°C52 %758 мм3.5 м/с9 %
  • 26мая
    Воскресенье
    +9°
    +20°
    Облачно с прояснениями
    ВремяПогодаТемператураВлажностьДавлениеВетер, м/сВероятность осадков
    00:00Ясно и безоблачно+14°C60 %758 мм3.6 м/с12 %
    03:00Ясно и безоблачно+12°C76 %759 мм1.9 м/с27 %
    06:00Небольшая облачность+14°C87 %759 мм2.8 м/с44 %
    09:00Пасмурно, небольшой дождь+15°C82 %760 мм3.3 м/с46 %
    12:00Облачно с прояснениями, небольшой дождь+16°C67 %761 мм2.2 м/с41 %
    15:00Облачно с прояснениями+18°C53 %761 мм2.0 м/с24 %
    18:00Облачно с прояснениями+19°C50 %760 мм2.2 м/с14 %
    21:00Небольшая облачность+15°C65 %761 мм2.3 м/с3 %
Мы используем cookies
Соглашаюсь